createdAt,value
2018-03-14T00:00:31.306Z,5.2
2018-03-14T00:05:31.163Z,5.2
2018-03-14T00:10:31.133Z,5.2
2018-03-14T00:15:32.123Z,5.2
2018-03-14T00:20:31.817Z,5.2
2018-03-14T00:25:31.060Z,5.2
2018-03-14T00:30:32.112Z,5.2
2018-03-14T00:35:30.869Z,5.2
2018-03-14T00:40:31.161Z,5.2
2018-03-14T00:45:31.034Z,5.2
2018-03-14T00:50:31.192Z,4.9
2018-03-14T00:55:31.147Z,4.9
2018-03-14T01:00:31.426Z,4.6
2018-03-14T01:05:30.894Z,4.4
2018-03-14T01:46:03.701Z,4.1
2018-03-14T01:46:03.755Z,4.1
2018-03-14T01:47:20.655Z,3.9
2018-03-14T01:50:46.415Z,3.9
2018-03-14T01:55:48.040Z,4
2018-03-14T02:00:48.579Z,3.8
2018-03-14T02:05:50.325Z,3.7
2018-03-14T02:10:48.050Z,3.6
2018-03-14T02:15:47.697Z,3.6
2018-03-14T02:20:48.162Z,3.6
2018-03-14T02:26:45.623Z,3.4
2018-03-14T02:30:55.513Z,3.4
2018-03-14T02:35:46.506Z,3.3
2018-03-14T02:40:46.359Z,3.2
2018-03-14T02:45:46.060Z,3.1
2018-03-14T02:50:46.327Z,3.1
2018-03-14T02:55:46.586Z,3.1
2018-03-14T03:00:47.209Z,3
2018-03-14T03:05:50.107Z,2.9
2018-03-14T03:10:46.334Z,2.9
2018-03-14T03:15:47.256Z,2.8
2018-03-14T03:20:48.147Z,2.8
2018-03-14T03:25:46.692Z,2.8
2018-03-14T03:30:48.572Z,2.7
2018-03-14T03:35:46.244Z,2.7
2018-03-14T03:40:51.556Z,2.6
2018-03-14T03:45:48.638Z,2.5
2018-03-14T03:50:51.419Z,2.5
2018-03-14T03:55:47.777Z,2.4
2018-03-14T04:00:46.926Z,2.4
2018-03-14T04:05:47.279Z,2.4
2018-03-14T04:10:48.756Z,2.4
2018-03-14T04:15:46.974Z,2.3
2018-03-14T04:20:48.270Z,2.3
2018-03-14T04:25:47.993Z,2.3
2018-03-14T04:30:46.466Z,2.3
2018-03-14T04:35:47.117Z,2.3
2018-03-14T04:40:51.536Z,2.3
2018-03-14T04:45:48.608Z,2.3
2018-03-14T04:50:46.301Z,2.2
2018-03-14T04:55:47.216Z,2.2
2018-03-14T05:00:48.601Z,2.2
2018-03-14T05:05:54.399Z,2.1
2018-03-14T05:10:45.785Z,2.1
2018-03-14T05:15:48.952Z,2.1
2018-03-14T05:20:46.161Z,2.1
2018-03-14T05:25:56.614Z,2.1
2018-03-14T05:48:20.189Z,2.1
2018-03-14T05:57:31.786Z,2.1
2018-03-14T05:59:19.160Z,2.1
2018-03-14T06:05:04.089Z,2.1
2018-03-14T06:09:03.505Z,2.1
2018-03-14T06:17:41.563Z,2.1
2018-03-14T06:17:42.113Z,2.1
2018-03-14T06:17:47.122Z,2.1
2018-03-14T06:21:47.049Z,2.1
2018-03-14T06:26:02.051Z,2.1
2018-03-14T06:30:45.574Z,2.1
2018-03-14T06:38:34.070Z,2.1
2018-03-14T06:41:51.657Z,2.1
2018-03-14T06:45:47.755Z,2.1
2018-03-14T06:50:51.411Z,2.1
2018-03-14T06:55:46.822Z,2.1
2018-03-14T07:00:46.168Z,2.1
2018-03-14T07:05:54.935Z,2.1
2018-03-14T07:10:46.299Z,2.1
2018-03-14T07:15:47.810Z,2.1
2018-03-14T07:21:11.287Z,3.4
2018-03-14T07:25:48.340Z,3.4
2018-03-14T07:31:40.131Z,3.4
2018-03-14T07:35:57.788Z,3.4
2018-03-14T07:41:34.177Z,3.4
2018-03-14T07:47:02.164Z,3.4
2018-03-14T07:50:46.575Z,3.4
2018-03-14T07:56:46.539Z,3.4
2018-03-14T08:00:45.309Z,3.4
2018-03-14T08:05:48.988Z,3.4
2018-03-14T08:13:26.425Z,3.4
2018-03-14T08:16:14.612Z,3.4
2018-03-14T08:20:45.941Z,3.4
2018-03-14T08:28:00.768Z,3.4
2018-03-14T08:32:17.268Z,3.4
2018-03-14T08:35:45.879Z,3.4
2018-03-14T08:41:25.694Z,3.4
2018-03-14T08:46:39.167Z,3.4
2018-03-14T08:50:45.662Z,3.4
2018-03-14T08:55:57.077Z,3.4
2018-03-14T09:00:47.266Z,3.4
2018-03-14T09:05:52.283Z,3.4
2018-03-14T09:10:55.369Z,3.4
2018-03-14T09:15:45.872Z,3.4
2018-03-14T09:20:54.892Z,3.4
2018-03-14T09:25:56.592Z,3.4
2018-03-14T09:30:51.240Z,3.4
2018-03-14T09:35:47.864Z,3.4
2018-03-14T09:41:49.108Z,3.4
2018-03-14T09:45:46.620Z,3.4
2018-03-14T09:50:55.494Z,3.4
2018-03-14T09:55:53.732Z,3.4
2018-03-14T10:02:29.195Z,3.4
2018-03-14T10:05:45.668Z,3.4
2018-03-14T10:11:04.974Z,3.4
2018-03-14T10:15:46.070Z,3.4
2018-03-14T10:20:50.363Z,3.4
2018-03-14T10:25:47.365Z,3.4
2018-03-14T10:30:58.870Z,3.4
2018-03-14T10:35:45.882Z,3.4
2018-03-14T10:41:12.656Z,3.4
2018-03-14T10:45:47.374Z,3.4
2018-03-14T10:50:49.536Z,3.4
2018-03-14T10:56:05.746Z,3.4
2018-03-14T11:00:46.686Z,3.4
2018-03-14T11:05:46.339Z,3.4
2018-03-14T11:10:45.401Z,3.4
2018-03-14T11:17:27.619Z,3.4
2018-03-14T11:20:45.905Z,3.4
2018-03-14T11:25:50.737Z,3.4
2018-03-14T11:31:22.290Z,3.4
2018-03-14T11:35:44.888Z,3.4
2018-03-14T11:40:49.269Z,3.4
2018-03-14T11:46:25.740Z,3.4
2018-03-14T11:50:45.160Z,3.4
2018-03-14T11:55:47.089Z,3.4
2018-03-14T12:00:50.050Z,3.4
2018-03-14T12:06:00.009Z,3.4
2018-03-14T12:10:45.346Z,3.4
2018-03-14T12:16:19.403Z,3.4
2018-03-14T12:20:45.685Z,3.4
2018-03-14T12:25:44.829Z,3.4
2018-03-14T12:31:25.058Z,3.4
2018-03-14T12:35:46.080Z,3.4
2018-03-14T12:40:47.947Z,3.4
2018-03-14T12:46:55.079Z,3.4
2018-03-14T12:50:47.937Z,3.4
2018-03-14T12:55:48.006Z,3.4
2018-03-14T13:00:48.700Z,3.4
2018-03-14T13:05:52.626Z,3.4
2018-03-14T13:10:50.789Z,3.4
2018-03-14T13:15:49.291Z,3.4
2018-03-14T13:21:13.664Z,3.4
2018-03-14T13:25:47.324Z,3.4
2018-03-14T13:30:53.767Z,3.4
2018-03-14T13:35:46.000Z,3.4
2018-03-14T13:41:18.697Z,3.4
2018-03-14T13:45:45.964Z,3.4
2018-03-14T13:50:47.797Z,3.4
2018-03-14T13:55:54.261Z,3.4
2018-03-14T14:00:46.074Z,3.4
2018-03-14T14:07:56.383Z,3.4
2018-03-14T14:10:46.608Z,3.4
2018-03-14T14:15:56.265Z,3.4
2018-03-14T14:20:56.217Z,3.4
2018-03-14T14:25:47.118Z,3.4
2018-03-14T14:30:50.143Z,3.4
2018-03-14T14:35:46.134Z,3.4
2018-03-14T14:40:48.356Z,3.4
2018-03-14T14:45:45.979Z,3.4
2018-03-14T14:50:46.504Z,3.4
2018-03-14T14:55:45.439Z,3.4
2018-03-14T15:00:45.615Z,3.4
2018-03-14T15:05:47.731Z,3.4
2018-03-14T15:10:48.709Z,3.4
2018-03-14T15:15:49.257Z,3.4
2018-03-14T15:20:53.600Z,3.4
2018-03-14T15:25:46.543Z,3.4
2018-03-14T15:30:47.930Z,10.7
2018-03-14T15:36:34.322Z,10.7
2018-03-14T15:40:45.398Z,10.7
2018-03-14T15:45:46.136Z,10.7
2018-03-14T15:51:21.007Z,10.7
2018-03-14T15:56:38.846Z,10.7
2018-03-14T16:00:45.679Z,10.7
2018-03-14T16:05:54.474Z,10.7
2018-03-14T16:11:58.028Z,10.7
2018-03-14T16:17:04.521Z,10.7
2018-03-14T16:22:33.540Z,10.7
2018-03-14T16:25:48.108Z,10.7
2018-03-14T16:30:46.973Z,9.8
2018-03-14T16:35:44.543Z,9.8
2018-03-14T16:40:54.490Z,9.8
2018-03-14T16:45:44.792Z,9.6
2018-03-14T16:50:45.666Z,9.6
2018-03-14T16:55:45.251Z,9.5
2018-03-14T17:00:46.376Z,9.5
2018-03-14T17:06:12.198Z,9.3
2018-03-14T17:10:48.709Z,9.3
2018-03-14T17:15:48.937Z,9.3
2018-03-14T17:20:45.895Z,9.3
2018-03-14T17:25:46.923Z,9
2018-03-14T17:30:47.571Z,9
2018-03-14T17:35:47.295Z,8.9
2018-03-14T17:40:46.161Z,8.9
2018-03-14T17:45:46.184Z,8.9
2018-03-14T17:50:48.190Z,8.9
2018-03-14T17:55:47.944Z,8.9
2018-03-14T18:00:51.930Z,8.9
2018-03-14T18:05:44.589Z,8.9
2018-03-14T18:10:49.191Z,8.9
2018-03-14T18:15:48.131Z,8.9
2018-03-14T18:20:47.036Z,8.9
2018-03-14T18:25:48.039Z,8.9
2018-03-14T18:31:21.570Z,8.9
2018-03-14T18:35:44.396Z,8.9
2018-03-14T18:40:45.085Z,8.9
2018-03-14T18:45:55.400Z,8.9
2018-03-14T18:50:44.981Z,8.9
2018-03-14T18:55:45.312Z,8.9
2018-03-14T19:00:49.915Z,8.9
2018-03-14T19:05:45.888Z,8.9
2018-03-14T19:10:46.668Z,8.9
2018-03-14T19:17:22.570Z,8.9
2018-03-14T19:20:44.120Z,8.9
2018-03-14T19:25:45.486Z,8.9
2018-03-14T19:30:49.523Z,7.3
2018-03-14T19:35:45.708Z,7.2
2018-03-14T19:40:46.010Z,7.1
2018-03-14T19:46:00.690Z,7.1
2018-03-14T19:50:44.389Z,7
2018-03-14T19:55:44.773Z,6.8
2018-03-14T20:01:00.638Z,6.7
2018-03-14T20:05:44.902Z,6.8
2018-03-14T20:10:46.526Z,6.7
2018-03-14T20:16:00.777Z,6.6
2018-03-14T20:20:44.621Z,6.6
2018-03-14T20:25:45.882Z,6.5
2018-03-14T20:30:48.664Z,6.5
2018-03-14T20:35:44.217Z,6.5
2018-03-14T20:40:47.475Z,6.3
2018-03-14T20:45:47.473Z,6.3
2018-03-14T20:50:45.355Z,6.3
2018-03-14T20:55:48.305Z,6.3
2018-03-14T21:00:45.683Z,6.3
2018-03-14T21:05:45.848Z,6.3
2018-03-14T21:10:44.270Z,6.3
2018-03-14T21:15:46.453Z,6.3
2018-03-14T21:20:54.350Z,6.3
2018-03-14T21:25:44.135Z,6.3
2018-03-14T21:30:44.683Z,6.3
2018-03-14T21:35:44.654Z,6.3
2018-03-14T21:40:46.632Z,5.7
2018-03-14T21:45:44.793Z,5.7
2018-03-14T21:50:47.996Z,5.7
2018-03-14T21:55:46.939Z,5.6
2018-03-14T22:00:47.847Z,5.6
2018-03-14T22:05:57.500Z,5.6
2018-03-14T22:10:44.023Z,5.5
2018-03-14T22:15:46.835Z,5.5
2018-03-14T22:21:09.948Z,5.4
2018-03-14T22:25:45.047Z,5.3
2018-03-14T22:30:44.556Z,5.3
2018-03-14T22:36:08.310Z,5.3
2018-03-14T22:40:45.534Z,5.3
2018-03-14T22:45:46.385Z,5.1
2018-03-14T22:51:00.322Z,5.1
2018-03-14T22:55:43.781Z,5.1
2018-03-14T23:00:44.788Z,5.1
2018-03-14T23:05:56.163Z,5.1
2018-03-14T23:10:45.084Z,5
2018-03-14T23:15:45.089Z,5
2018-03-14T23:20:55.639Z,5
2018-03-14T23:25:44.076Z,5
2018-03-14T23:30:44.446Z,5
2018-03-14T23:36:06.612Z,5
2018-03-14T23:40:44.374Z,5
2018-03-14T23:45:45.826Z,5
2018-03-14T23:51:30.570Z,5
2018-03-14T23:55:43.495Z,5
